Time;durP1;ratioP1;P1;durP2;ratioP2;P2;SDS_P1;SDS_P2;PMS_P1;PMS_P2;Temp;Humidity;BMP_temperature;BMP_pressure;BME280_temperature;BME280_humidity;BME280_pressure;Samples;Min_cycle;Max_cycle;Signal;HPM_P1;HPM_P2
2024/01/10 00:00:49;;;;;;;8.35;5.43;;;;;;;-6.03;62.07;103122.91;5017417;28;20071;-79
2024/01/10 00:03:14;;;;;;;8.40;5.32;;;;;;;-6.04;62.78;103118.66;5033785;28;20073;-81
2024/01/10 00:05:40;;;;;;;8.10;5.00;;;;;;;-6.10;62.89;103120.13;5034874;28;20116;-81
2024/01/10 00:08:06;;;;;;;10.30;5.57;;;;;;;-6.44;62.24;103069.22;5017661;28;20033;-81
2024/01/10 00:10:31;;;;;;;9.00;5.15;;;;;;;-6.10;62.90;103117.59;5017295;28;20026;-81
2024/01/10 00:12:56;;;;;;;9.23;5.63;;;;;;;-6.14;63.27;103107.38;5017225;28;20418;-81
2024/01/10 00:15:22;;;;;;;7.85;4.90;;;;;;;-6.17;63.07;103104.72;5017230;28;20021;-82
2024/01/10 00:17:52;;;;;;;8.48;5.18;;;;;;;-6.24;63.13;103113.66;5033684;28;20397;-80
2024/01/10 00:21:10;;;;;;;10.05;5.25;;;;;;;-7.23;63.48;102943.56;5016968;28;20029;-80
2024/01/10 00:23:54;;;;;;;8.63;5.00;;;;;;;-7.54;63.04;102889.50;4897269;29;20111;-80
2024/01/10 00:26:19;;;;;;;7.82;5.03;;;;;;;-6.49;63.81;103074.06;4897402;29;20037;-79
2024/01/10 00:28:50;;;;;;;8.80;5.40;;;;;;;-7.31;63.25;102928.16;4897299;29;20505;-79
2024/01/10 00:31:27;;;;;;;8.43;4.90;;;;;;;-6.33;63.56;103108.22;4897285;29;20037;-79
2024/01/10 00:33:53;;;;;;;8.32;5.32;;;;;;;-7.18;63.40;102956.28;4898479;29;20526;-79
2024/01/10 00:36:18;;;;;;;9.07;5.07;;;;;;;-6.57;64.50;103056.94;4897239;29;20484;-79
2024/01/10 00:38:44;;;;;;;9.27;5.30;;;;;;;-6.37;64.14;103098.84;4897084;29;20052;-80
2024/01/10 00:41:09;;;;;;;8.90;5.30;;;;;;;-6.45;64.84;103088.47;4881076;29;20045;-78
2024/01/10 00:43:34;;;;;;;7.93;4.93;;;;;;;-6.41;65.33;103096.97;4896889;29;20033;-78
2024/01/10 00:46:00;;;;;;;9.63;5.03;;;;;;;-6.71;65.32;103059.69;4896911;29;20052;-79
2024/01/10 00:48:25;;;;;;;7.95;5.00;;;;;;;-6.48;65.37;103105.94;4881275;29;20037;-79
2024/01/10 00:50:50;;;;;;;9.25;5.53;;;;;;;-6.79;65.48;103045.06;4881471;29;20565;-79
2024/01/10 00:53:16;;;;;;;9.60;5.68;;;;;;;-6.45;65.71;103092.63;4897041;29;20041;-79
2024/01/10 00:55:41;;;;;;;9.05;5.43;;;;;;;-6.47;66.13;103089.19;4896287;29;20037;-79
2024/01/10 00:58:06;;;;;;;9.38;5.40;;;;;;;-6.51;66.64;103093.22;4896580;29;20032;-78
2024/01/10 01:00:32;;;;;;;8.55;5.18;;;;;;;-6.80;65.49;103026.63;4956544;28;20431;-79
2024/01/10 01:02:57;;;;;;;9.55;5.22;;;;;;;-6.66;65.99;103050.72;5016498;28;20064;-78
2024/01/10 01:05:22;;;;;;;9.23;5.25;;;;;;;-6.56;66.57;103071.22;5034018;28;20096;-79
2024/01/10 01:07:48;;;;;;;11.23;5.45;;;;;;;-6.59;66.44;103068.53;5016301;28;20021;-79
2024/01/10 01:10:13;;;;;;;8.38;5.50;;;;;;;-6.57;66.86;103066.97;5016373;28;20473;-79
2024/01/10 01:12:39;;;;;;;8.73;5.05;;;;;;;-6.68;66.98;103057.31;5033537;28;20029;-79
2024/01/10 01:15:05;;;;;;;9.20;5.55;;;;;;;-6.64;66.70;103073.38;5034322;28;20391;-79
2024/01/10 01:17:31;;;;;;;8.25;5.68;;;;;;;-6.68;67.00;103069.03;5016269;28;20388;-79
2024/01/10 01:19:56;;;;;;;9.48;5.60;;;;;;;-6.60;67.34;103082.75;5016166;28;20021;-78
2024/01/10 01:22:22;;;;;;;9.38;5.60;;;;;;;-6.68;67.08;103056.47;5016299;28;20029;-79
2024/01/10 01:24:47;;;;;;;10.43;6.20;;;;;;;-6.60;67.98;103082.75;5033805;28;20029;-80
2024/01/10 01:27:13;;;;;;;9.43;5.50;;;;;;;-6.61;67.48;103080.19;5015605;28;20028;-80
2024/01/10 01:29:38;;;;;;;10.10;6.10;;;;;;;-6.57;68.06;103089.59;5015559;28;20172;-80
2024/01/10 01:32:03;;;;;;;8.85;5.50;;;;;;;-6.78;67.33;103055.22;5033490;28;20026;-79
2024/01/10 01:34:29;;;;;;;8.88;5.75;;;;;;;-6.61;68.50;103090.22;5015963;28;20113;-79
2024/01/10 01:36:54;;;;;;;10.55;6.45;;;;;;;-6.88;67.77;103033.00;5015982;28;20404;-79
2024/01/10 01:39:19;;;;;;;10.10;6.45;;;;;;;-6.67;67.93;103060.69;5012269;28;20548;-80
2024/01/10 01:41:45;;;;;;;11.15;7.22;;;;;;;-6.60;67.97;103075.22;5031117;28;20030;-79
2024/01/10 01:44:10;;;;;;;10.68;7.07;;;;;;;-6.63;68.54;103080.13;5033039;28;20096;-79
2024/01/10 01:46:35;;;;;;;11.15;7.00;;;;;;;-6.68;69.73;103069.88;5033106;28;20535;-79
2024/01/10 01:49:02;;;;;;;9.73;6.07;;;;;;;-7.16;68.62;102990.72;5015579;28;20026;-79
2024/01/10 01:51:29;;;;;;;10.52;6.70;;;;;;;-6.58;68.34;103077.81;5032998;28;20056;-80
2024/01/10 01:53:54;;;;;;;10.20;6.93;;;;;;;-6.86;68.60;103031.41;5033001;28;20025;-79
2024/01/10 01:56:20;;;;;;;9.48;6.55;;;;;;;-6.62;68.83;103071.78;5033095;28;20036;-80
2024/01/10 01:58:46;;;;;;;10.13;6.38;;;;;;;-6.74;69.31;103058.69;5032876;28;20104;-79
2024/01/10 02:01:12;;;;;;;10.85;6.20;;;;;;;-6.71;69.73;103077.28;5032731;28;20025;-79
2024/01/10 02:03:38;;;;;;;10.20;6.47;;;;;;;-6.75;69.95;103075.44;5015158;28;20125;-79
2024/01/10 02:06:04;;;;;;;10.52;6.65;;;;;;;-6.74;70.36;103072.13;5015423;28;20044;-78
2024/01/10 02:08:33;;;;;;;10.23;6.28;;;;;;;-6.86;69.98;103040.59;5030493;28;20026;-79
2024/01/10 02:10:59;;;;;;;10.00;6.18;;;;;;;-6.75;70.05;103067.91;5032958;28;20548;-80
2024/01/10 02:13:24;;;;;;;9.55;6.28;;;;;;;-6.75;70.15;103062.88;5014981;28;20123;-80
2024/01/10 02:15:51;;;;;;;10.38;6.20;;;;;;;-6.83;70.89;103051.63;5032753;28;20101;-80
2024/01/10 02:18:16;;;;;;;11.23;6.53;;;;;;;-6.93;71.21;103036.94;5032754;28;20420;-80
2024/01/10 02:20:45;;;;;;;9.07;6.05;;;;;;;-7.28;71.34;102986.00;5032710;28;20029;-80
2024/01/10 02:23:11;;;;;;;9.35;5.65;;;;;;;-7.02;71.65;103039.91;5032442;28;20068;-80
2024/01/10 02:25:37;;;;;;;9.27;5.70;;;;;;;-6.84;71.77;103064.97;5032706;28;20504;-80
2024/01/10 02:28:02;;;;;;;10.27;5.60;;;;;;;-7.12;72.62;103016.81;5032516;28;20026;-79
2024/01/10 02:30:28;;;;;;;8.68;5.40;;;;;;;-7.00;72.35;103047.50;5032288;28;20030;-79
2024/01/10 02:32:54;;;;;;;8.75;5.53;;;;;;;-7.01;73.11;103040.75;5014411;28;20531;-79
2024/01/10 02:35:19;;;;;;;8.98;5.07;;;;;;;-6.95;73.78;103071.19;5032532;28;20326;-79
2024/01/10 02:37:44;;;;;;;9.57;5.53;;;;;;;-7.19;74.50;103035.75;5014486;28;20032;-80
2024/01/10 02:40:10;;;;;;;9.82;6.07;;;;;;;-7.00;73.70;103055.88;5032443;28;20390;-80
2024/01/10 02:42:36;;;;;;;9.48;6.05;;;;;;;-6.98;74.10;103060.97;5014599;28;20478;-80
2024/01/10 02:45:01;;;;;;;8.88;5.80;;;;;;;-6.97;74.44;103061.06;5014470;28;20030;-80
2024/01/10 02:47:28;;;;;;;9.60;5.78;;;;;;;-6.99;74.47;103057.59;5032311;28;20029;-80
2024/01/10 02:49:54;;;;;;;8.77;5.68;;;;;;;-7.02;74.84;103049.94;5014888;28;20092;-80
2024/01/10 02:52:20;;;;;;;9.25;5.85;;;;;;;-6.94;75.03;103056.16;5032356;28;20490;-80
2024/01/10 02:54:46;;;;;;;10.25;5.90;;;;;;;-7.24;74.73;103012.97;5014908;28;20026;-80
2024/01/10 02:57:12;;;;;;;8.77;5.45;;;;;;;-7.06;75.61;103030.53;5032328;28;20025;-79
2024/01/10 02:59:37;;;;;;;10.65;5.95;;;;;;;-7.54;75.50;102963.91;5014493;28;20029;-80
2024/01/10 03:02:03;;;;;;;8.45;5.13;;;;;;;-7.07;76.15;103035.47;5030868;28;20027;-80
2024/01/10 03:04:29;;;;;;;9.35;5.60;;;;;;;-7.00;76.29;103045.84;5031200;28;20385;-79
2024/01/10 03:06:54;;;;;;;9.88;5.80;;;;;;;-6.99;76.19;103035.00;5032257;28;20021;-80
2024/01/10 03:09:19;;;;;;;8.70;5.45;;;;;;;-6.95;76.33;103031.00;5032236;28;20061;-80
2024/01/10 03:11:45;;;;;;;9.90;5.75;;;;;;;-6.98;76.34;103030.84;5032175;28;20037;-79
2024/01/10 03:14:11;;;;;;;8.93;5.93;;;;;;;-7.36;77.05;102966.41;5014308;28;20030;-80
2024/01/10 03:16:37;;;;;;;9.30;6.05;;;;;;;-7.08;77.19;103011.13;5032189;28;20029;-80
2024/01/10 03:19:03;;;;;;;9.40;5.70;;;;;;;-7.39;77.56;102966.25;5032805;28;20033;-78
2024/01/10 03:21:31;;;;;;;9.13;5.97;;;;;;;-7.25;77.43;102990.31;5018368;28;20040;-78
2024/01/10 03:23:57;;;;;;;9.93;5.85;;;;;;;-7.04;77.05;103023.91;5018110;28;20029;-79
2024/01/10 03:26:24;;;;;;;9.23;5.22;;;;;;;-7.26;77.03;102979.44;5034230;28;20493;-80
2024/01/10 03:28:49;;;;;;;9.57;6.07;;;;;;;-7.02;78.04;103013.94;5035890;28;20029;-79
2024/01/10 03:31:16;;;;;;;8.35;5.30;;;;;;;-7.35;78.03;102963.94;5035657;28;20037;-79
2024/01/10 03:33:41;;;;;;;10.27;6.13;;;;;;;-7.06;78.28;103017.09;5017940;28;20026;-79
2024/01/10 03:36:10;;;;;;;8.75;5.50;;;;;;;-7.15;78.38;103004.16;5035695;28;20374;-78
2024/01/10 03:38:35;;;;;;;9.48;6.18;;;;;;;-7.10;78.64;103012.72;5035427;28;20045;-78
2024/01/10 03:41:00;;;;;;;9.00;5.40;;;;;;;-7.16;79.53;103000.78;5035677;28;20138;-79
2024/01/10 03:43:26;;;;;;;11.27;5.97;;;;;;;-7.07;79.32;103011.22;5017816;28;20029;-78
2024/01/10 03:45:51;;;;;;;8.85;5.75;;;;;;;-7.41;79.58;102953.63;5017575;28;20485;-79
2024/01/10 03:48:16;;;;;;;9.95;5.80;;;;;;;-8.05;79.54;102862.97;5035225;28;20029;-80
2024/01/10 03:50:42;;;;;;;9.93;6.25;;;;;;;-7.34;80.34;102974.84;5035469;28;20079;-80
2024/01/10 03:53:07;;;;;;;8.82;5.50;;;;;;;-7.76;80.19;102904.41;5035363;28;20107;-79
2024/01/10 03:55:32;;;;;;;9.15;5.70;;;;;;;-7.17;80.66;103006.59;5034188;28;20021;-80
2024/01/10 03:57:58;;;;;;;10.32;5.63;;;;;;;-7.18;80.78;103007.34;5035338;28;20531;-80
2024/01/10 04:00:25;;;;;;;12.15;5.75;;;;;;;-7.17;80.98;103011.63;5035312;28;20072;-79
2024/01/10 04:02:50;;;;;;;11.10;6.10;;;;;;;-7.23;81.57;102987.09;5035079;28;20033;-79
2024/01/10 04:05:15;;;;;;;8.55;5.65;;;;;;;-7.46;80.38;102947.56;5035120;28;20137;-79
2024/01/10 04:07:43;;;;;;;11.68;5.55;;;;;;;-7.79;82.01;102891.69;5033934;28;20120;-78
2024/01/10 04:10:10;;;;;;;10.02;6.05;;;;;;;-7.16;81.89;102989.88;5017721;28;20025;-78
2024/01/10 04:12:38;;;;;;;9.55;6.10;;;;;;;-7.19;82.25;102983.03;5035032;28;20366;-78
2024/01/10 04:15:04;;;;;;;12.73;5.95;;;;;;;-7.48;81.81;102926.53;5016914;28;20485;-78
2024/01/10 04:17:30;;;;;;;9.13;5.32;;;;;;;-7.19;82.55;102982.19;5034327;28;20029;-78
2024/01/10 04:19:55;;;;;;;10.25;6.30;;;;;;;-7.17;82.32;102978.97;5017411;28;20116;-78
2024/01/10 04:22:21;;;;;;;9.05;5.72;;;;;;;-7.19;82.51;102990.56;5017289;28;20033;-78
2024/01/10 04:24:46;;;;;;;9.63;5.88;;;;;;;-7.19;82.52;102988.06;5017268;28;20048;-79
2024/01/10 04:27:11;;;;;;;9.73;6.13;;;;;;;-7.39;83.02;102963.72;5017122;28;20354;-78
2024/01/10 04:29:37;;;;;;;11.23;6.25;;;;;;;-7.50;82.60;102935.66;5034594;28;20088;-78
2024/01/10 04:32:02;;;;;;;9.38;5.55;;;;;;;-7.65;82.50;102904.88;5033462;28;20029;-77
2024/01/10 04:34:28;;;;;;;8.80;5.40;;;;;;;-7.17;83.34;102978.13;5034493;28;20116;-77
2024/01/10 04:36:53;;;;;;;11.10;6.22;;;;;;;-7.20;83.14;102962.91;5017117;28;20051;-78
2024/01/10 04:39:18;;;;;;;9.05;5.53;;;;;;;-7.54;82.87;102898.69;5033289;28;20050;-78
2024/01/10 04:41:44;;;;;;;11.07;6.55;;;;;;;-7.13;82.97;102972.44;5034476;28;20568;-78
2024/01/10 04:44:09;;;;;;;10.50;5.78;;;;;;;-7.17;83.62;102970.59;5034390;28;20033;-78
2024/01/10 04:46:35;;;;;;;10.90;6.10;;;;;;;-7.44;82.99;102928.41;5034329;28;20071;-78
2024/01/10 04:49:00;;;;;;;10.18;6.50;;;;;;;-7.20;83.14;102985.50;5034157;28;20065;-78
2024/01/10 04:51:25;;;;;;;9.88;5.75;;;;;;;-7.19;83.93;102988.06;5016692;28;20049;-78
2024/01/10 04:53:51;;;;;;;10.60;6.50;;;;;;;-7.25;83.62;102986.16;5016749;28;20029;-78
2024/01/10 04:56:17;;;;;;;9.55;5.85;;;;;;;-7.42;83.67;102954.44;5016476;28;20523;-77
2024/01/10 04:58:42;;;;;;;11.18;5.97;;;;;;;-7.26;83.97;102981.94;5034249;28;20034;-78
2024/01/10 05:01:07;;;;;;;10.43;6.45;;;;;;;-7.25;84.71;102988.66;5033927;28;20025;-78
2024/01/10 05:03:33;;;;;;;9.10;5.70;;;;;;;-7.29;85.23;102991.81;5034110;28;20472;-78
2024/01/10 05:05:58;;;;;;;9.82;5.60;;;;;;;-7.50;85.46;102953.22;5016044;28;20056;-78
2024/01/10 05:08:24;;;;;;;10.05;5.88;;;;;;;-7.34;85.15;102990.78;5034059;28;20492;-78
2024/01/10 05:10:50;;;;;;;9.52;5.97;;;;;;;-7.52;85.21;102944.78;5016254;28;20119;-78
2024/01/10 05:13:15;;;;;;;8.30;5.85;;;;;;;-7.34;84.96;102979.88;5033928;28;20484;-78
2024/01/10 05:15:41;;;;;;;10.43;6.43;;;;;;;-7.39;85.60;102984.66;5015860;28;20044;-79
2024/01/10 05:18:06;;;;;;;10.10;5.63;;;;;;;-7.46;85.37;102977.69;5016068;28;20030;-77
2024/01/10 05:20:31;;;;;;;10.20;6.30;;;;;;;-7.67;86.30;102939.03;5033611;28;20033;-78
2024/01/10 05:22:58;;;;;;;8.25;4.95;;;;;;;-7.40;85.63;102977.94;5033714;28;20486;-78
2024/01/10 05:25:24;;;;;;;9.65;5.65;;;;;;;-7.44;85.73;102983.63;5016130;28;20033;-79
2024/01/10 05:27:50;;;;;;;9.82;6.15;;;;;;;-7.55;85.82;102952.16;5033662;28;20417;-81
2024/01/10 05:30:15;;;;;;;10.23;6.20;;;;;;;-7.49;86.80;102966.63;5033839;28;20033;-81
2024/01/10 05:32:42;;;;;;;8.95;5.40;;;;;;;-7.51;86.46;102979.97;5033851;28;20091;-80
2024/01/10 05:35:08;;;;;;;9.45;6.38;;;;;;;-7.47;86.40;102978.47;5001908;28;20470;-79
2024/01/10 05:37:33;;;;;;;12.23;6.70;;;;;;;-7.71;86.94;102947.22;5012329;28;20088;-78
2024/01/10 05:39:58;;;;;;;12.70;5.80;;;;;;;-7.56;87.86;102970.53;5013765;28;20096;-79
2024/01/10 05:42:24;;;;;;;9.63;5.40;;;;;;;-7.60;87.69;102974.53;5013446;28;20076;-78
2024/01/10 05:44:49;;;;;;;9.82;5.70;;;;;;;-7.71;87.81;102962.28;5013486;28;20054;-79
2024/01/10 05:47:15;;;;;;;11.90;6.65;;;;;;;-7.58;88.74;102979.59;5012295;28;20025;-78
2024/01/10 05:49:40;;;;;;;11.18;6.30;;;;;;;-7.63;89.01;102978.53;5012234;28;20049;-78
2024/01/10 05:52:05;;;;;;;11.10;6.13;;;;;;;-7.63;89.04;102971.88;5013266;28;20109;-78
2024/01/10 05:54:31;;;;;;;10.18;6.55;;;;;;;-7.62;89.47;102986.13;5013150;28;20030;-78
2024/01/10 05:56:57;;;;;;;9.95;6.35;;;;;;;-7.70;89.34;102984.06;5012530;28;20026;-79
2024/01/10 05:59:22;;;;;;;10.57;5.60;;;;;;;-7.94;90.21;102947.03;5011692;28;20022;-79
2024/01/10 06:01:47;;;;;;;10.27;5.68;;;;;;;-7.71;90.50;102987.38;4995455;28;20044;-78
2024/01/10 06:04:13;;;;;;;10.23;6.57;;;;;;;-7.77;90.62;102984.56;5013237;28;20026;-79
2024/01/10 06:06:38;;;;;;;10.93;5.65;;;;;;;-8.06;91.35;102938.06;5013182;28;20057;-78
2024/01/10 06:09:04;;;;;;;10.82;6.75;;;;;;;-7.84;91.82;102984.28;4995303;28;20022;-79
2024/01/10 06:11:29;;;;;;;13.32;6.30;;;;;;;-7.83;92.23;102980.13;5012175;28;20033;-78
2024/01/10 06:13:57;;;;;;;9.32;5.63;;;;;;;-7.87;92.39;102981.63;4995383;28;20025;-79
2024/01/10 06:16:22;;;;;;;10.57;5.97;;;;;;;-8.39;92.65;102893.13;5012849;28;20026;-79
2024/01/10 06:18:48;;;;;;;9.88;6.07;;;;;;;-8.14;93.05;102937.72;5013144;28;20040;-78
2024/01/10 06:21:14;;;;;;;10.68;6.55;;;;;;;-7.87;93.66;102974.09;5012686;28;20508;-78
2024/01/10 06:23:39;;;;;;;11.88;6.25;;;;;;;-8.10;93.42;102929.56;5011491;28;20053;-79
2024/01/10 06:26:04;;;;;;;12.25;6.85;;;;;;;-8.12;93.78;102929.47;5011950;28;20026;-78
2024/01/10 06:28:30;;;;;;;11.90;5.80;;;;;;;-7.90;93.85;102966.44;5012686;28;20101;-78
2024/01/10 06:30:55;;;;;;;10.15;6.75;;;;;;;-7.91;95.02;102963.88;5012853;28;20484;-78
2024/01/10 06:33:21;;;;;;;10.43;6.15;;;;;;;-7.87;95.62;102970.72;5011452;28;20591;-78
2024/01/10 06:35:46;;;;;;;8.73;5.95;;;;;;;-8.05;95.62;102937.31;5012372;28;20148;-78
2024/01/10 06:38:12;;;;;;;11.82;7.03;;;;;;;-8.02;95.65;102955.84;5012691;28;20386;-78
2024/01/10 06:40:37;;;;;;;13.52;7.97;;;;;;;-7.95;95.98;102962.00;4994991;28;20358;-77
2024/01/10 06:43:04;;;;;;;11.77;7.18;;;;;;;-7.99;96.44;102961.00;5012325;28;20034;-77
2024/01/10 06:45:29;;;;;;;11.65;7.15;;;;;;;-8.11;96.47;102946.25;4994799;28;20451;-78
2024/01/10 06:47:55;;;;;;;11.85;6.80;;;;;;;-8.35;96.85;102895.00;5012452;28;20037;-79
2024/01/10 06:50:21;;;;;;;12.43;7.15;;;;;;;-8.46;96.35;102891.97;4994942;28;20025;-79
2024/01/10 06:52:48;;;;;;;11.65;7.50;;;;;;;-7.92;96.11;102967.16;5012603;28;20474;-79
2024/01/10 06:55:13;;;;;;;10.73;6.38;;;;;;;-7.90;96.19;102966.44;4997578;28;20069;-78
2024/01/10 06:57:38;;;;;;;13.50;7.25;;;;;;;-7.97;96.64;102961.91;5016744;28;20483;-79
2024/01/10 07:00:07;;;;;;;12.48;6.95;;;;;;;-7.90;96.85;102970.59;5016596;28;20080;-79
2024/01/10 07:02:32;;;;;;;12.23;6.63;;;;;;;-8.18;96.36;102915.78;5015139;28;20432;-79
2024/01/10 07:04:58;;;;;;;11.48;6.35;;;;;;;-8.13;96.00;102932.78;5015330;28;20128;-80
2024/01/10 07:07:23;;;;;;;11.90;7.72;;;;;;;-8.06;96.14;102943.97;4998910;28;20137;-81
2024/01/10 07:09:48;;;;;;;12.95;7.57;;;;;;;-7.91;95.47;102963.88;5016168;28;20367;-81
2024/01/10 07:12:14;;;;;;;13.55;7.15;;;;;;;-7.82;96.49;102984.34;5015184;28;20117;-80
2024/01/10 07:14:39;;;;;;;14.18;7.38;;;;;;;-8.19;96.47;102914.06;4998128;28;20389;-79
2024/01/10 07:17:05;;;;;;;11.65;7.00;;;;;;;-7.81;95.78;102981.91;5015590;28;20025;-80
2024/01/10 07:19:31;;;;;;;13.75;8.18;;;;;;;-8.09;96.05;102916.22;5038983;28;20044;-79
2024/01/10 07:22:00;;;;;;;13.80;7.10;;;;;;;-7.79;96.05;102987.00;5038479;28;20055;-78
2024/01/10 07:24:26;;;;;;;11.30;7.22;;;;;;;-7.80;95.91;102978.63;5037860;28;20075;-80
2024/01/10 07:26:51;;;;;;;15.98;7.80;;;;;;;-7.80;96.27;102990.31;5037560;28;20033;-80
2024/01/10 07:29:16;;;;;;;13.10;7.55;;;;;;;-8.00;96.26;102959.28;5055746;28;20060;-80
2024/01/10 07:31:42;;;;;;;12.13;7.57;;;;;;;-7.91;96.48;102976.41;5037737;28;20528;-78
2024/01/10 07:34:08;;;;;;;11.52;6.65;;;;;;;-7.80;96.31;102983.63;5037288;28;20029;-80
2024/01/10 07:36:33;;;;;;;12.38;6.85;;;;;;;-7.89;96.29;102965.66;5055371;28;20032;-79
2024/01/10 07:39:00;;;;;;;12.05;7.90;;;;;;;-7.76;96.43;102991.31;5053691;28;20053;-77
2024/01/10 07:41:25;;;;;;;12.40;7.18;;;;;;;-8.04;96.07;102929.84;5054244;28;20037;-78
2024/01/10 07:43:50;;;;;;;13.07;7.45;;;;;;;-8.32;96.58;102875.06;5037523;28;20357;-80
2024/01/10 07:46:16;;;;;;;12.23;7.30;;;;;;;-7.72;96.58;102968.94;5037246;28;20033;-79
2024/01/10 07:48:42;;;;;;;13.95;7.88;;;;;;;-7.90;95.84;102932.97;5037691;28;20102;-79
2024/01/10 07:51:09;;;;;;;13.82;8.65;;;;;;;-7.75;96.52;102946.25;5037714;28;20456;-80
2024/01/10 07:53:36;;;;;;;14.23;9.00;;;;;;;-7.66;96.21;102966.72;5037367;28;20029;-81
2024/01/10 07:56:01;;;;;;;14.85;8.63;;;;;;;-8.28;95.63;102856.00;5055091;28;20036;-79
2024/01/10 07:58:27;;;;;;;14.80;7.93;;;;;;;-7.90;95.81;102916.28;5055237;28;20025;-81
2024/01/10 08:00:54;;;;;;;13.23;8.07;;;;;;;-7.69;95.10;102945.66;5037514;28;20051;-80
2024/01/10 08:03:19;;;;;;;14.05;7.90;;;;;;;-7.57;95.15;102956.22;5037096;28;20045;-79
2024/01/10 08:05:45;;;;;;;13.50;8.55;;;;;;;-7.56;94.76;102958.84;5037334;28;20025;-80
2024/01/10 08:08:13;;;;;;;13.40;7.40;;;;;;;-7.51;94.84;102967.41;5037148;28;20017;-80
2024/01/10 08:10:39;;;;;;;16.40;8.85;;;;;;;-7.47;94.39;102975.97;5036977;28;20032;-80
2024/01/10 08:13:05;;;;;;;16.25;8.95;;;;;;;-7.82;94.45;102909.97;5036885;28;20036;-78
2024/01/10 08:15:31;;;;;;;13.70;8.18;;;;;;;-7.60;94.52;102946.06;5037336;28;20021;-80
2024/01/10 08:17:56;;;;;;;14.45;9.07;;;;;;;-7.41;94.14;102980.38;5037075;28;20017;-80
2024/01/10 08:20:22;;;;;;;13.60;8.38;;;;;;;-7.39;93.74;102982.16;5054942;28;20100;-81
2024/01/10 08:25:35;;;;;;;14.18;7.80;;;;;;;-8.40;93.73;102802.06;2081342;23;20494;-81
2024/01/10 08:28:06;;;;;;;12.27;7.97;;;;;;;-8.56;93.52;102768.72;5014883;28;20385;-81
2024/01/10 08:30:42;;;;;;;14.07;8.82;;;;;;;-7.83;94.46;102893.22;5014904;28;20026;-80
2024/01/10 08:33:22;;;;;;;14.43;9.52;;;;;;;-7.97;94.13;102869.16;5014877;28;20033;-80
2024/01/10 08:36:00;;;;;;;14.10;9.47;;;;;;;-8.46;93.95;102770.84;5013397;28;20026;-80
2024/01/10 08:39:38;;;;;;;;;;;;;;;;;;;;;
2024/01/10 08:42:19;;;;;;;13.15;8.57;;;;;;;-8.56;93.46;102759.56;5014156;28;20034;-80
2024/01/10 08:44:45;;;;;;;12.70;8.40;;;;;;;-8.02;93.53;102844.69;5014724;28;20089;-80
2024/01/10 08:47:24;;;;;;;14.32;8.45;;;;;;;-7.78;93.99;102875.00;5014634;28;20033;-78
2024/01/10 08:49:50;;;;;;;14.68;8.68;;;;;;;-7.10;93.05;102975.06;5014386;28;20029;-80
2024/01/10 08:52:16;;;;;;;13.65;9.25;;;;;;;-7.06;94.03;102976.94;5013411;28;20041;-78
2024/01/10 08:54:41;;;;;;;15.32;8.32;;;;;;;-7.01;92.87;102971.31;5013626;28;20022;-78
2024/01/10 08:57:06;;;;;;;13.18;8.27;;;;;;;-6.95;92.91;102975.75;5013108;28;20029;-78
2024/01/10 08:59:32;;;;;;;14.75;9.63;;;;;;;-6.88;92.27;102976.84;5014167;28;20129;-78
2024/01/10 09:01:57;;;;;;;12.77;8.73;;;;;;;-6.80;91.40;102973.88;5014136;28;20385;-77
2024/01/10 09:04:23;;;;;;;12.65;8.20;;;;;;;-6.75;91.05;102976.59;5012730;28;20181;-78
2024/01/10 09:06:48;;;;;;;15.00;10.27;;;;;;;-6.83;90.43;102935.22;5012949;28;20044;-79
2024/01/10 09:09:13;;;;;;;14.07;10.05;;;;;;;-7.03;87.98;102901.72;5014104;28;20029;-79
2024/01/10 09:11:39;;;;;;;15.68;9.15;;;;;;;-6.49;87.81;102986.09;5013987;28;20026;-76
2024/01/10 09:14:04;;;;;;;13.48;9.23;;;;;;;-6.71;86.75;102935.72;4996516;28;20033;-79
2024/01/10 09:16:30;;;;;;;15.70;10.02;;;;;;;-6.58;86.74;102942.13;5012464;28;20033;-78
2024/01/10 09:18:57;;;;;;;16.38;10.43;;;;;;;-6.37;86.42;102970.66;5013691;28;20022;-79
2024/01/10 09:21:22;;;;;;;15.40;9.90;;;;;;;-6.37;84.77;102963.13;5013552;28;20044;-76
2024/01/10 09:23:50;;;;;;;14.80;9.90;;;;;;;-6.13;83.43;102988.38;5012460;28;20541;-77
2024/01/10 09:26:17;;;;;;;12.73;9.30;;;;;;;-6.08;82.38;102995.31;5041973;28;20507;-78
2024/01/10 09:28:42;;;;;;;15.07;10.45;;;;;;;-6.03;81.64;102992.13;5053528;28;20422;-77
2024/01/10 09:31:08;;;;;;;15.77;10.32;;;;;;;-6.16;80.96;102968.13;5053563;28;20028;-78
2024/01/10 09:33:33;;;;;;;16.20;10.00;;;;;;;-5.96;81.80;102987.41;5053571;28;20021;-79
2024/01/10 09:35:59;;;;;;;15.23;10.07;;;;;;;-5.94;81.46;103005.06;5053538;28;20433;-79
2024/01/10 09:38:25;;;;;;;17.08;10.88;;;;;;;-5.92;81.22;103000.94;5052108;28;20032;-79
2024/01/10 09:40:52;;;;;;;15.35;10.50;;;;;;;-5.96;79.10;102991.56;5052064;28;20057;-78
2024/01/10 09:43:18;;;;;;;16.63;10.23;;;;;;;-5.80;79.93;103003.91;5052966;28;20028;-79
2024/01/10 09:45:48;;;;;;;17.10;10.77;;;;;;;-5.73;79.53;103010.03;5053188;28;20112;-77
2024/01/10 09:48:15;;;;;;;15.38;10.18;;;;;;;-6.05;78.93;102951.81;5053131;28;20017;-78
2024/01/10 09:50:41;;;;;;;17.92;10.15;;;;;;;-5.70;77.97;103008.50;5053079;28;20021;-77
2024/01/10 09:53:07;;;;;;;16.27;11.48;;;;;;;-5.80;77.08;102981.25;5051180;28;20126;-78
2024/01/10 09:55:36;;;;;;;15.52;10.00;;;;;;;-5.61;77.05;103008.84;5052828;28;20068;-77
2024/01/10 09:58:04;;;;;;;16.75;9.73;;;;;;;-5.58;76.57;103008.97;5051653;28;20025;-78
2024/01/10 10:00:30;;;;;;;20.55;10.43;;;;;;;-5.51;76.34;103008.38;5052081;28;20021;-78
2024/01/10 10:02:57;;;;;;;15.95;10.65;;;;;;;-5.99;76.44;102916.84;5052700;28;20376;-79
2024/01/10 10:05:23;;;;;;;17.33;10.35;;;;;;;-5.40;76.27;103002.94;5052673;28;20029;-79
2024/01/10 10:07:50;;;;;;;17.38;11.02;;;;;;;-5.73;76.81;102942.94;5051587;28;20021;-78
2024/01/10 10:10:17;;;;;;;16.65;11.38;;;;;;;-5.34;76.30;102995.59;5051409;28;20484;-79
2024/01/10 10:12:44;;;;;;;17.70;11.43;;;;;;;-5.27;75.45;103000.91;5052327;28;20025;-78
2024/01/10 10:15:18;;;;;;;17.00;11.10;;;;;;;-5.36;75.98;102979.56;5051607;28;20381;-78
2024/01/10 10:17:46;;;;;;;14.45;9.68;;;;;;;-5.29;76.02;102976.47;5052728;28;20048;-79
2024/01/10 10:20:22;;;;;;;17.92;11.40;;;;;;;-5.16;73.67;102986.19;5052332;28;20388;-79
2024/01/10 10:23:04;;;;;;;16.30;11.70;;;;;;;-5.23;72.70;102974.16;5052287;28;20099;-77
2024/01/10 10:25:33;;;;;;;;;;;;;;;-5.04;73.37;103000.88;5048480;28;20050;-77
2024/01/10 10:27:59;;;;;;;17.85;11.40;;;;;;;-5.03;72.53;102988.34;5047895;28;19975;-78
2024/01/10 10:30:25;;;;;;;17.58;11.68;;;;;;;-5.25;70.97;102935.50;5031909;28;20026;-81
2024/01/10 10:32:51;;;;;;;16.38;10.88;;;;;;;-4.86;70.13;102993.97;5047889;28;20441;-83
2024/01/10 10:35:19;;;;;;;18.73;11.50;;;;;;;-4.87;70.76;102977.16;5047517;28;20021;-82
2024/01/10 10:37:44;;;;;;;16.83;11.82;;;;;;;-4.77;70.90;102990.94;5032328;28;20033;-82
2024/01/10 10:40:11;;;;;;;19.15;12.38;;;;;;;-4.74;71.37;102991.03;5047973;28;20362;-83
2024/01/10 10:42:52;;;;;;;19.95;11.48;;;;;;;-4.75;70.58;102985.13;5046752;28;20186;-81
2024/01/10 10:45:19;;;;;;;18.27;10.60;;;;;;;-5.09;70.35;102926.81;5031021;28;20025;-78
2024/01/10 10:48:17;;;;;;;;;;;;;;;;;;;;;
2024/01/10 10:51:12;;;;;;;17.70;10.38;;;;;;;-5.10;69.96;102913.38;5032658;28;20354;-78
2024/01/10 10:53:40;;;;;;;18.25;12.25;;;;;;;-4.61;70.85;102978.06;4990690;28;20439;-77
2024/01/10 10:56:07;;;;;;;17.52;10.73;;;;;;;-4.51;70.12;102986.78;4990656;28;20604;-79
2024/01/10 10:58:39;;;;;;;20.08;12.27;;;;;;;-4.51;69.15;102972.50;4955190;28;20164;-79
2024/01/10 11:01:06;;;;;;;18.15;12.10;;;;;;;-4.42;69.56;102982.91;4955521;28;20570;-75
2024/01/10 11:03:34;;;;;;;16.30;10.32;;;;;;;-4.74;68.48;102925.50;4954813;28;20042;-77
2024/01/10 11:06:03;;;;;;;18.35;11.50;;;;;;;-4.74;67.66;102922.97;4955040;28;20388;-80
2024/01/10 11:08:33;;;;;;;17.90;10.63;;;;;;;-4.31;67.53;102977.34;4971356;28;20832;-78
2024/01/10 11:11:01;;;;;;;18.13;11.93;;;;;;;-4.52;67.28;102939.66;4955046;28;20039;-79
2024/01/10 11:13:55;;;;;;;17.63;11.32;;;;;;;-4.34;68.13;102952.88;4971052;28;20038;-79
2024/01/10 11:16:53;;;;;;;16.48;12.02;;;;;;;-4.49;67.04;102925.50;4970987;28;20082;-77
2024/01/10 11:19:40;;;;;;;18.58;11.88;;;;;;;-4.10;67.71;102962.91;4921420;29;20079;-78
2024/01/10 11:22:49;;;;;;;18.48;11.35;;;;;;;-4.06;67.80;102964.69;4994553;23;20132;-76
2024/01/10 11:25:19;;;;;;;20.08;12.10;;;;;;;-4.20;66.38;102931.50;4990303;28;20057;-77